Les articles d'ExpertMaritime.pro


Votre expert maritime indépendant Xavier Braive est disponible sur la zone de Saujon - Port de Ribérou - 17600

(Charente-Maritime - Poitou-Charentes)


Voir plan
Situation :

Le port de Ribérou est un port de pêche et de plaisance situé au fond de l'estuaire de la Seudre, à Saujon. C'est l'un des deux ports de la ville avec celui du Breuil, un peu en aval.

Actif dès le XIe siècle, il prend son aspect actuel à partir de 1842, sous l'impulsion du ministre des travaux publics de l'époque, Jules Dufaure, " enfant du pays", qui tente ainsi de relancer le commerce maritime et les activités halieutiques, alors en déclin.
Idéalement situé, en marge du centre-ville, de la base de loisirs de La Lande et des espaces préservés des marais de la Seudre (chemins de halage transformés en sentiers de promenade), il est devenu un des hauts lieux du tourisme saujonnais, où sont notamment organisés des soirées thématiques et le feu d'artifice du 14 juillet.

En 2011, le port de Ribérou a été l'objet d'un important programme de rénovation urbaine conduit par l'architecte-urbaniste Sophie Blanchet, complétant des efforts déjà mis en œuvre en centre-ville.
Une partie du site est reconvertie en esplanade piétonne, dotée d'un mobilier urbain contemporain : il se veut une sorte de "trait d'union" entre la base de loisirs de La Lande (piscine, tennis, boulodrome, stade, terrain de basket...), les sentiers de promenade et de découverte des marais de la Seudre, qui débutent au port, et le centre-ville.
L'inauguration du nouveau port a lieu le 18 août 2012, en présence du maire, Pascal Ferchaud, et d'une foule nombreuse venue profiter des animations : concerts, jeux nautiques, joutes, etc.

Aujourd'hui, le port de Ribérou est un petit port de pêche et de plaisance. C'est également une base de départ pour certains sports nautiques (canoë-kayak). Sa longueur est d'environ 250 mètres pour 40 mètres.
Depuis Ribérou, il est possible d'atteindre successivement les ports du Breuil (Saujon), de L'Éguille, de Mornac, de Chaillevette, de Chatressac (Chaillevette), des Grandes Roches et d'Orivol (Étaules), de La Grève à Duret et de Coux (Arvert), de La Grève (La Tremblade) et de La Cayenne (Marennes).


En 2011, la municipalité entame un programme de rénovation du site portuaire, confié à l'architecte-urbaniste Sophie Blanchet. Il consiste en une transformation des anciens parkings en esplanade piétonne, véritable espace de rencontre doté d'un mobilier urbain moderne et à terme, d'espaces verts. Depuis les quais, bordés d'immeubles bourgeois, de petites rues pittoresques et fleuries de roses trémières permettent de sillonner le quartier et de rejoindre le centre-ville.

Le pont à écluse de Ribérou, dit « pont des eaux contraires », a été rénové en 2010. Il marque la séparation entre les eaux de l'estuaire (côté port : eaux saumâtres) et les eaux du fleuve (côté bassin de retenue : eaux douces).



Adresse :

Mairie
1, place Denfert Rochereau
17600 SAUJON

Tél/Fax : 05 46 02 80 07 / 05 46 02 91 92

E-mail : contact@mairie-saujon.fr
Météo locale sur la zone Port de Ribérou
Heure (UTC) Dir.Vent Vit.Vent (nds) Force (Bft) T°min T°max P (mb) Hum.Rel.
18/06/2021 - 03:00:00 au 18/06/2021 - 06:00:00 276° (W) 2 1 18°C 19°C 1011 94 %
18/06/2021 - 06:00:00 au 18/06/2021 - 09:00:00 295° (WNW) 5 2 19°C 20°C 1012 90 %
18/06/2021 - 09:00:00 au 18/06/2021 - 12:00:00 272° (W) 8 3 21°C 22°C 1013 80 %
18/06/2021 - 12:00:00 au 18/06/2021 - 15:00:00 282° (WNW) 7 3 22°C 22°C 1014 71 %
18/06/2021 - 15:00:00 au 18/06/2021 - 18:00:00 317° (NW) 6 2 20°C 20°C 1015 80 %
18/06/2021 - 18:00:00 au 18/06/2021 - 21:00:00 354° (N) 6 2 17°C 17°C 1015 91 %
18/06/2021 - 21:00:00 au 19/06/2021 - 00:00:00 341° (NNW) 5 2 17°C 17°C 1015 91 %
19/06/2021 - 00:00:00 au 19/06/2021 - 03:00:00 051° (NE) 4 2 17°C 17°C 1014 93 %
19/06/2021 - 03:00:00 au 19/06/2021 - 06:00:00 016° (NNE) 5 2 18°C 18°C 1014 90 %
19/06/2021 - 06:00:00 au 19/06/2021 - 09:00:00 098° (E) 7 3 23°C 23°C 1013 74 %
19/06/2021 - 09:00:00 au 19/06/2021 - 12:00:00 202° (SSW) 6 2 25°C 25°C 1011 67 %
19/06/2021 - 12:00:00 au 19/06/2021 - 15:00:00 256° (WSW) 9 3 19°C 19°C 1010 94 %
19/06/2021 - 15:00:00 au 19/06/2021 - 18:00:00 295° (WNW) 4 2 20°C 20°C 1009 89 %
19/06/2021 - 18:00:00 au 19/06/2021 - 21:00:00 229° (SW) 4 2 18°C 18°C 1009 94 %
19/06/2021 - 21:00:00 au 20/06/2021 - 00:00:00 209° (SSW) 3 1 17°C 17°C 1007 92 %
20/06/2021 - 00:00:00 au 20/06/2021 - 03:00:00 193° (SSW) 4 2 16°C 16°C 1006 92 %
20/06/2021 - 03:00:00 au 20/06/2021 - 06:00:00 152° (SSE) 5 2 17°C 17°C 1006 90 %
20/06/2021 - 06:00:00 au 20/06/2021 - 09:00:00 192° (SSW) 14 4 21°C 21°C 1005 68 %
20/06/2021 - 09:00:00 au 20/06/2021 - 12:00:00 209° (SSW) 21 5 22°C 22°C 1006 59 %
20/06/2021 - 12:00:00 au 20/06/2021 - 15:00:00 246° (WSW) 13 4 19°C 19°C 1006 78 %
20/06/2021 - 15:00:00 au 20/06/2021 - 18:00:00 271° (W) 5 2 19°C 19°C 1006 74 %
20/06/2021 - 18:00:00 au 20/06/2021 - 21:00:00 351° (N) 3 1 16°C 16°C 1007 81 %
20/06/2021 - 21:00:00 au 21/06/2021 - 00:00:00 316° (NW) 2 1 15°C 15°C 1007 91 %
21/06/2021 - 00:00:00 au 21/06/2021 - 03:00:00 071° (ENE) 4 2 14°C 14°C 1006 95 %
21/06/2021 - 03:00:00 au 21/06/2021 - 06:00:00 205° (SSW) 3 1 15°C 15°C 1006 94 %
21/06/2021 - 06:00:00 au 21/06/2021 - 09:00:00 242° (WSW) 7 3 17°C 17°C 1007 86 %
21/06/2021 - 09:00:00 au 21/06/2021 - 12:00:00 232° (SW) 13 4 19°C 19°C 1009 75 %
21/06/2021 - 12:00:00 au 21/06/2021 - 15:00:00 233° (SW) 13 4 19°C 19°C 1009 74 %
21/06/2021 - 15:00:00 au 21/06/2021 - 18:00:00 250° (WSW) 11 4 19°C 19°C 1010 79 %
21/06/2021 - 18:00:00 au 21/06/2021 - 21:00:00 239° (WSW) 6 2 16°C 16°C 1011 87 %
21/06/2021 - 21:00:00 au 22/06/2021 - 00:00:00 270° (W) 4 2 15°C 15°C 1012 88 %
22/06/2021 - 00:00:00 au 22/06/2021 - 03:00:00 339° (NNW) 7 3 14°C 14°C 1013 95 %
22/06/2021 - 03:00:00 au 22/06/2021 - 06:00:00 350° (N) 10 3 14°C 14°C 1015 93 %
22/06/2021 - 06:00:00 au 22/06/2021 - 09:00:00 352° (N) 11 4 16°C 16°C 1017 79 %
22/06/2021 - 09:00:00 au 22/06/2021 - 12:00:00 330° (NNW) 11 4 19°C 19°C 1019 56 %
22/06/2021 - 12:00:00 au 22/06/2021 - 15:00:00 324° (NW) 11 4 18°C 18°C 1020 60 %
22/06/2021 - 15:00:00 au 22/06/2021 - 18:00:00 308° (NW) 11 4 18°C 18°C 1021 65 %
22/06/2021 - 18:00:00 au 22/06/2021 - 21:00:00 331° (NNW) 7 3 14°C 14°C 1023 76 %
22/06/2021 - 21:00:00 au 23/06/2021 - 00:00:00 349° (N) 3 1 13°C 13°C 1023 78 %
23/06/2021 - 00:00:00 au 23/06/2021 - 03:00:00 113° (ESE) 3 1 13°C 13°C 1023 79 %
openweathermap
Ces informations sont partiellement extraites de Wikipedia, et des sites pertinents pour cette zone. Compilation d'informations de Xavier Braive.
Xavier Braive, Expert Maritime Plaisance se déplace sur Port de Ribérou, Saujon, 17600, Charente-Maritime

Welcome to Cross-Channel yachtmen !

we can deliver survey reports in english, in case of dammage or prior to buy / sell a boat in France (pre-purchase survey), and more specifically on the Atlantic coast.

Uw onafhankelijk jachtexpert

verkrijkbaar op de Atlantische kust, bij aankoop of reparatie van jachten (metaal, polyester of composiet). Rapporten in Nederlands

BRAIVE, Xavier
Xavier Braive
Expert Maritime
Nouvelle Aquitaine
France
06 71 50 20 17